Time;durP1;ratioP1;P1;durP2;ratioP2;P2;SDS_P1;SDS_P2;PMS_P1;PMS_P2;Temp;Humidity;BMP_temperature;BMP_pressure;BME280_temperature;BME280_humidity;BME280_pressure;Samples;Min_cycle;Max_cycle;Signal;HPM_P1;HPM_P2
2023/06/15 00:01:54;;;;;;;;;;;;;;;18.66;100.00;99367.88;5031949;28;20324;-75
2023/06/15 00:04:19;;;;;;;;;;;;;;;18.74;100.00;99386.41;5025995;28;19918;-76
2023/06/15 00:06:45;;;;;;;;;;;;;;;18.80;100.00;99386.44;5031579;28;19974;-75
2023/06/15 00:09:12;;;;;;;;;;;;;;;18.88;100.00;99388.13;5031569;28;19917;-76
2023/06/15 00:11:37;;;;;;;;;;;;;;;18.94;100.00;99392.66;5031728;28;19971;-74
2023/06/15 00:14:03;;;;;;;;;;;;;;;18.99;100.00;99390.22;5031338;28;19917;-75
2023/06/15 00:16:31;;;;;;;;;;;;;;;19.03;100.00;99386.09;5031491;28;19928;-76
2023/06/15 00:19:02;;;;;;;;;;;;;;;19.08;100.00;99386.34;5031577;28;20011;-76
2023/06/15 00:21:27;;;;;;;;;;;;;;;19.09;100.00;99390.66;5031136;28;19917;-76
2023/06/15 00:23:53;;;;;;;;;;;;;;;19.10;100.00;99386.97;5028854;28;19939;-75
2023/06/15 00:26:18;;;;;;;;;;;;;;;19.08;100.00;99394.38;5029103;28;19956;-74
2023/06/15 00:28:46;;;;;;;;;;;;;;;19.10;100.00;99394.97;5029560;28;20004;-76
2023/06/15 00:31:11;;;;;;;;;;;;;;;19.07;100.00;99390.03;5008627;28;20421;-77
2023/06/15 00:33:37;;;;;;;;;;;;;;;19.02;100.00;99389.84;5030619;28;19921;-76
2023/06/15 00:36:05;;;;;;;;;;;;;;;19.01;100.00;99390.03;5032181;28;19917;-76
2023/06/15 00:38:32;;;;;;;;;;;;;;;18.96;100.00;99390.63;5005939;28;19963;-77
2023/06/15 00:40:58;;;;;;;;;;;;;;;18.94;100.00;99392.66;5031859;28;19964;-76
2023/06/15 00:43:24;;;;;;;;;;;;;;;18.96;100.00;99392.47;5004841;28;20318;-76
2023/06/15 00:45:50;;;;;;;;;;;;;;;18.95;100.00;99394.31;5009838;28;20387;-77
2023/06/15 00:48:16;;;;;;;;;;;;;;;18.93;100.00;99388.34;5030509;28;19972;-76
2023/06/15 00:50:41;;;;;;;;;;;;;;;18.84;100.00;99389.56;5009083;28;20376;-76
2023/06/15 00:53:08;;;;;;;;;;;;;;;18.80;100.00;99385.63;5030993;28;19916;-74
2023/06/15 00:55:34;;;;;;;;;;;;;;;18.86;100.00;99389.34;5031273;28;19928;-76
2023/06/15 00:58:00;;;;;;;;;;;;;;;18.90;100.00;99396.78;5013311;28;19917;-76
2023/06/15 01:00:27;;;;;;;9.20;6.60;;;;;;;18.92;100.00;99392.03;5009074;28;19917;-77
2023/06/15 01:02:56;;;;;;;;;;;;;;;18.79;100.00;99400.03;5030886;28;20343;-76
2023/06/15 01:05:23;;;;;;;;;;;;;;;18.79;100.00;99390.13;5008784;28;20363;-76
2023/06/15 01:07:52;;;;;;;;;;;;;;;18.78;100.00;99390.34;5009469;28;20292;-75
2023/06/15 01:10:19;;;;;;;;;;;;;;;18.73;100.00;99395.47;5023530;28;19928;-76
2023/06/15 01:12:45;;;;;;;;;;;;;;;18.67;100.00;99396.28;5012763;28;19921;-77
2023/06/15 01:15:12;;;;;;;;;;;;;;;18.62;100.00;99388.00;5030979;28;19924;-79
2023/06/15 01:17:44;;;;;;;;;;;;;;;18.64;100.00;99399.31;5024547;28;19928;-76
2023/06/15 01:20:13;;;;;;;;;;;;;;;18.59;100.00;99401.78;5030758;28;20004;-75
2023/06/15 01:22:49;;;;;;;;;;;;;;;18.49;100.00;99396.75;5012907;28;19917;-75
2023/06/15 01:25:26;;;;;;;;;;;;;;;18.47;100.00;99401.47;5012681;28;19917;-75
2023/06/15 01:27:53;;;;;;;;;;;;;;;18.40;100.00;99398.75;5027369;28;19917;-75
2023/06/15 01:30:18;;;;;;;;;;;;;;;18.42;100.00;99399.41;5024941;28;20004;-75
2023/06/15 01:32:44;;;;;;;;;;;;;;;18.40;100.00;99412.13;5030888;28;20021;-76
2023/06/15 01:35:09;;;;;;;;;;;;;;;18.31;100.00;99413.31;5030569;28;20308;-75
2023/06/15 01:37:35;;;;;;;;;;;;;;;18.29;100.00;99403.81;5030348;28;19920;-75
2023/06/15 01:40:00;;;;;;;;;;;;;;;18.33;100.00;99405.06;5030534;28;19962;-75
2023/06/15 01:42:26;;;;;;;;;;;;;;;18.38;100.00;99413.31;5029919;28;20067;-76
2023/06/15 01:44:53;;;;;;;;;;;;;;;18.42;100.00;99415.44;5030617;28;20068;-76
2023/06/15 01:47:20;;;;;;;;;;;;;;;18.49;100.00;99420.81;5026543;28;19924;-76
2023/06/15 01:49:47;;;;;;;;;;;;;;;18.58;100.00;99429.50;5028484;28;19917;-75
2023/06/15 01:52:13;;;;;;;;;;;;;;;18.64;100.00;99424.19;5029817;28;19944;-76
2023/06/15 01:54:39;;;;;;;;;;;;;;;18.71;100.00;99434.94;5030567;28;19996;-74
2023/06/15 01:57:05;;;;;;;;;;;;;;;18.71;100.00;99432.25;5030839;28;19918;-75
2023/06/15 01:59:30;;;;;;;;;;;;;;;18.76;100.00;99424.47;5008100;28;20014;-76
2023/06/15 02:01:55;;;;;;;;;;;;;;;18.78;100.00;99430.44;5004532;28;19924;-76
2023/06/15 02:04:22;;;;;;;;;;;;;;;18.78;100.00;99419.75;5030472;28;19913;-74
2023/06/15 02:06:48;;;;;;;;;;;;;;;18.77;100.00;99423.44;5008028;28;20008;-76
2023/06/15 02:09:15;;;;;;;;;;;;;;;18.74;100.00;99429.19;5029174;28;19922;-77
2023/06/15 02:11:42;;;;;;;;;;;;;;;18.71;100.00;99429.59;5016452;28;19919;-76
2023/06/15 02:14:09;;;;;;;;;;;;;;;18.72;100.00;99431.25;5017863;28;19917;-75
2023/06/15 02:16:35;;;;;;;;;;;;;;;18.74;100.00;99434.53;5036709;28;20297;-76
2023/06/15 02:19:03;;;;;;;;;;;;;;;18.64;100.00;99436.75;5018785;28;19924;-76
2023/06/15 02:21:29;;;;;;;;;;;;;;;18.60;100.00;99436.31;5011740;28;19967;-77
2023/06/15 02:23:55;;;;;;;;;;;;;;;18.59;100.00;99439.19;5037652;28;20280;-77
2023/06/15 02:26:22;;;;;;;;;;;;;;;18.58;100.00;99440.19;5014159;28;20005;-76
2023/06/15 02:28:47;;;;;;;;;;;;;;;18.62;100.00;99436.09;5034272;28;19945;-75
2023/06/15 02:31:12;;;;;;;;;;;;;;;18.55;100.00;99429.91;5010093;28;19925;-76
2023/06/15 02:33:38;;;;;;;;;;;;;;;18.54;100.00;99428.22;5024999;28;19916;-76
2023/06/15 02:36:03;;;;;;;;;;;;;;;18.56;100.00;99426.19;5012177;28;20347;-76
2023/06/15 02:38:29;;;;;;;;;;;;;;;18.58;100.00;99429.50;5007274;28;19917;-77
2023/06/15 02:40:54;;;;;;;;;;;;;;;18.57;100.00;99433.19;5015946;28;20008;-77
2023/06/15 02:43:21;;;;;;;;;;;;;;;18.64;100.00;99439.41;5007384;28;19923;-75
2023/06/15 02:45:46;;;;;;;;;;;;;;;18.69;100.00;99436.97;5033144;28;20376;-78
2023/06/15 02:48:12;;;;;;;;;;;;;;;18.73;100.00;99433.69;5011575;28;19921;-76
2023/06/15 02:50:41;;;;;;;;;;;;;;;18.77;100.00;99432.31;5015603;28;19952;-75
2023/06/15 02:53:14;;;;;;;;;;;;;;;18.76;100.00;99432.50;5011048;28;20336;-77
2023/06/15 02:55:41;;;;;;;;;;;;;;;18.74;100.00;99429.19;5009730;28;20418;-77
2023/06/15 02:58:07;;;;;;;;;;;;;;;18.77;100.00;99428.78;5015526;28;20322;-76
2023/06/15 03:00:50;;;;;;;;;;;;;;;18.79;100.00;99430.22;5005203;28;20041;-74
2023/06/15 03:03:27;;;;;;;;;;;;;;;18.81;100.00;99430.88;5011689;28;19959;-76
2023/06/15 03:05:56;;;;;;;;;;;;;;;18.83;100.00;99424.50;5012981;28;19920;-76
2023/06/15 03:08:31;;;;;;;;;;;;;;;18.80;100.00;99426.53;5006662;28;20495;-77
2023/06/15 03:11:07;;;;;;;;;;;;;;;18.81;100.00;99427.38;5009490;28;19928;-76
2023/06/15 03:13:33;;;;;;;;;;;;;;;18.85;100.00;99431.28;5010112;28;19921;-77
2023/06/15 03:16:01;;;;;;;;;;;;;;;18.86;100.00;99440.13;5014585;28;20391;-75
2023/06/15 03:18:30;;;;;;;;;;;;;;;18.78;100.00;99438.47;5032106;28;19917;-76
2023/06/15 03:20:57;;;;;;;;;;;;;;;18.69;100.00;99436.97;5010803;28;20632;-76
2023/06/15 03:23:23;;;;;;;;;;;;;;;18.70;100.00;99433.28;5014498;28;19983;-75
2023/06/15 03:25:51;;;;;;;;;;;;;;;18.69;100.00;99439.63;5028444;28;20411;-75
2023/06/15 03:28:24;;;;;;;;;;;;;;;18.67;100.00;99434.47;4994252;28;20384;-76
2023/06/15 03:30:52;;;;;;;;;;;;;;;18.65;100.00;99446.41;5010791;28;19992;-75
2023/06/15 03:33:21;;;;;;;;;;;;;;;18.63;100.00;99443.09;5010636;28;19917;-77
2023/06/15 03:35:49;;;;;;;;;;;;;;;18.45;100.00;99448.09;5015577;23;19923;-77
2023/06/15 03:38:15;;;;;;;;;;;;;;;18.24;100.00;99455.16;4959304;28;19924;-79
2023/06/15 03:40:42;;;;;;;;;;;;;;;18.20;100.00;99451.22;4992576;28;19925;-78
2023/06/15 03:43:08;;;;;;;;;;;;;;;18.25;100.00;99451.47;4974589;28;19925;-79
2023/06/15 03:45:34;;;;;;;;;;;;;;;18.24;100.00;99449.81;4987359;28;19922;-79
2023/06/15 03:47:59;;;;;;;;;;;;;;;18.20;100.00;99456.56;4975995;28;20016;-79
2023/06/15 03:50:25;;;;;;;;;;;;;;;18.18;100.00;99455.94;4991401;28;19961;-79
2023/06/15 03:52:51;;;;;;;;;;;;;;;18.17;100.00;99448.13;4993123;28;19924;-79
2023/06/15 03:55:16;;;;;;;;;;;;;;;18.17;100.00;99454.28;4987075;28;19917;-78
2023/06/15 03:57:42;;;;;;;;;;;;;;;18.15;100.00;99460.81;4974666;28;20417;-79
2023/06/15 04:00:08;;;;;;;;;;;;;;;18.18;100.00;99455.94;4972012;28;19925;-79
2023/06/15 04:02:38;;;;;;;;;;;;;;;18.19;100.00;99467.44;4991341;28;19917;-78
2023/06/15 04:05:05;;;;;;;;;;;;;;;18.20;100.00;99464.56;4992860;28;19924;-79
2023/06/15 04:07:31;;;;;;;;;;;;;;;18.18;100.00;99465.78;4973721;28;20281;-79
2023/06/15 04:09:56;;;;;;;;;;;;;;;18.16;100.00;99468.66;4989724;28;20314;-77
2023/06/15 04:12:22;;;;;;;;;;;;;;;18.20;100.00;99475.25;4992760;28;20302;-80
2023/06/15 04:14:48;;;;;;;;;;;;;;;18.20;100.00;99475.25;4986774;28;19918;-78
2023/06/15 04:17:13;;;;;;;;;;;;;;;18.24;100.00;99481.03;4991855;28;19977;-78
2023/06/15 04:19:39;;;;;;;;;;;;;;;18.27;100.00;99476.13;4988528;28;19949;-78
2023/06/15 04:22:05;;;;;;;;;;;;;;;18.25;100.00;99483.53;4989302;28;19917;-78
2023/06/15 04:24:31;;;;;;;;;;;;;;;18.20;100.00;99480.59;5002578;28;19917;-78
2023/06/15 04:27:00;;;;;;;;;;;;;;;18.24;100.00;99491.72;4979040;28;20012;-78
2023/06/15 04:29:30;;;;;;;;;;;;;;;18.26;100.00;99498.50;4970035;28;20283;-78
2023/06/15 04:31:57;;;;;;;;;;;;;;;18.22;100.00;99499.94;4967561;28;20024;-77
2023/06/15 04:34:26;;;;;;;;;;;;;;;18.22;100.00;99489.25;4990033;28;19925;-77
2023/06/15 04:36:52;;;;;;;;;;;;;;;18.21;100.00;99495.59;4991888;28;19918;-78
2023/06/15 04:39:22;;;;;;;;;;;;;;;18.26;100.00;99479.81;4988600;28;20004;-77
2023/06/15 04:41:47;;;;;;;;;;;;;;;18.29;100.00;99484.78;4990104;28;20277;-77
2023/06/15 04:44:13;;;;;;;;;;;;;;;18.33;100.00;99491.38;4989737;28;20012;-77
2023/06/15 04:46:40;;;;;;;;;;;;;;;18.30;100.00;99490.97;4990584;28;19917;-78
2023/06/15 04:49:06;;;;;;;;;;;;;;;18.32;100.00;99489.72;4985545;28;20328;-78
2023/06/15 04:51:32;;;;;;;;;;;;;;;18.36;100.00;99491.00;4969750;28;19953;-78
2023/06/15 04:53:58;;;;;;;;;;;;;;;18.37;100.00;99499.84;4986015;28;20290;-78
2023/06/15 04:56:24;;;;;;;;;;;;;;;18.39;100.00;99500.47;4970510;28;19917;-78
2023/06/15 04:58:50;;;;;;;;;;;;;;;18.41;100.00;99499.25;4967738;28;19928;-78
2023/06/15 05:01:16;;;;;;;;;;;;;;;18.42;100.00;99506.25;4990790;28;19917;-78
2023/06/15 05:03:42;;;;;;;;;;;;;;;18.43;100.00;99499.06;4984330;28;19925;-78
2023/06/15 05:06:08;;;;;;;;;;;;;;;18.48;100.00;99509.16;4990169;28;19922;-76
2023/06/15 05:08:35;;;;;;;;;;;;;;;18.54;100.00;99511.06;4983997;28;19928;-75
2023/06/15 05:11:01;;;;;;;;;;;;;;;18.59;100.00;99506.00;4971201;28;19973;-77
2023/06/15 05:13:30;;;;;;;;;;;;;;;18.57;100.00;99508.03;4970014;28;20672;-79
2023/06/15 05:15:55;;;;;;;;;;;;;;;18.48;100.00;99509.16;4971013;28;19917;-79
2023/06/15 05:18:26;;;;;;;;;;;;;;;18.49;100.00;99510.84;4967416;28;20264;-79
2023/06/15 05:20:52;;;;;;;;;;;;;;;18.48;100.00;99509.16;4984203;28;19917;-77
2023/06/15 05:23:19;;;;;;;;;;;;;;;18.46;100.00;99508.53;4984974;28;20393;-76
2023/06/15 05:25:45;;;;;;;;;;;;;;;18.44;100.00;99514.06;4967670;28;19918;-79
2023/06/15 05:28:10;;;;;;;;;;;;;;;18.41;100.00;99509.94;4969018;28;19945;-77
2023/06/15 05:30:38;;;;;;;;;;;;;;;18.46;100.00;99512.03;4968343;28;19952;-78
2023/06/15 05:33:04;;;;;;;;;;;;;;;18.49;100.00;99510.84;4967663;28;19968;-76
2023/06/15 05:35:30;;;;;;;;;;;;;;;18.51;100.00;99514.13;4966186;28;20004;-79
2023/06/15 05:37:56;;;;;;;;;;;;;;;18.53;100.00;99510.25;4966661;28;19918;-81
2023/06/15 05:40:22;;;;;;;;;;;;;;;18.58;100.00;99509.69;4977464;28;20366;-80
2023/06/15 05:42:47;;;;;;;;;;;;;;;18.62;100.00;99510.94;4990150;28;19997;-81
2023/06/15 05:45:13;;;;;;;;;;;;;;;18.69;100.00;99512.63;4984077;28;20012;-79
2023/06/15 05:47:38;;;;;;;;;;;;;;;18.73;100.00;99508.53;4969231;28;20412;-78
2023/06/15 05:50:04;;;;;;;;;;;;;;;18.77;100.00;99514.34;4968358;28;19922;-81
2023/06/15 05:52:31;;;;;;;;;;;;;;;18.80;100.00;99503.25;4946933;28;19922;-82
2023/06/15 05:54:57;;;;;;;;;;;;;;;18.85;100.00;99508.81;4970156;28;20009;-76
2023/06/15 05:57:22;;;;;;;;;;;;;;;18.90;100.00;99503.72;4964858;28;19925;-78
2023/06/15 05:59:48;;;;;;;;;;;;;;;18.94;100.00;99510.31;4984246;28;19919;-78
2023/06/15 06:02:14;;;;;;;;;;;;;;;18.92;100.00;99512.34;4969868;28;19925;-78
2023/06/15 06:04:39;;;;;;;;;;;;;;;19.00;100.00;99511.38;4970391;28;19922;-78
2023/06/15 06:07:06;;;;;;;;;;;;;;;19.10;100.00;99509.16;4970062;28;19917;-76
2023/06/15 06:09:33;;;;;;;;;;;;;;;19.16;100.00;99508.38;4966058;28;19923;-75
2023/06/15 06:12:00;;;;;;;;;;;;;;;19.26;100.00;99516.03;4974075;28;19918;-77
2023/06/15 06:14:26;;;;;;;;;;;;;;;19.26;100.00;99514.19;4978423;28;20386;-76
2023/06/15 06:16:52;;;;;;;;;;;;;;;19.29;100.00;99512.94;4965641;28;20408;-78
2023/06/15 06:19:17;;;;;;;;;;;;;;;19.36;100.00;99520.00;4968086;28;19922;-77
2023/06/15 06:21:43;;;;;;;;;;;;;;;19.42;100.00;99523.72;4978501;28;19949;-77
2023/06/15 06:24:09;;;;;;;;;;;;;;;19.44;100.00;99524.34;4970099;28;20341;-77
2023/06/15 06:26:37;;;;;;;;;;;;;;;19.52;100.00;99519.66;4967187;28;19922;-78
2023/06/15 06:29:03;;;;;;;;;;;;;;;19.64;100.00;99522.56;4969957;28;19918;-78
2023/06/15 06:31:28;;;;;;;;;;;;;;;19.71;100.00;99525.28;4967370;28;19988;-78
2023/06/15 06:33:54;;;;;;;;;;;;;;;19.78;100.00;99524.28;4966849;28;19949;-78
2023/06/15 06:36:19;;;;;;;;;;;;;;;19.90;100.00;99528.00;4978703;28;19928;-78
2023/06/15 06:38:44;;;;;;;;;;;;;;;19.99;100.00;99521.41;4987034;28;19930;-78
2023/06/15 06:41:10;;;;;;;;;;;;;;;20.08;100.00;99529.25;4988682;28;20001;-78
2023/06/15 06:43:36;;;;;;;;;;;;;;;20.15;100.00;99530.06;4988021;28;19918;-77
2023/06/15 06:46:01;;;;;;;;;;;;;;;20.22;100.00;99530.91;4987652;28;19926;-77
2023/06/15 06:48:27;;;;;;;;;;;;;;;20.31;100.00;99524.34;4988487;28;19925;-78
2023/06/15 06:50:52;;;;;;;;;;;;;;;20.40;100.00;99528.47;4985793;28;19924;-77
2023/06/15 06:53:18;;;;;;;;;;;;;;;20.48;100.00;99525.59;4985537;28;19918;-78
2023/06/15 06:55:44;;;;;;;;;;;;;;;20.60;100.00;99529.28;4989200;28;19925;-78
2023/06/15 06:58:11;;;;;;;;;;;;;;;20.74;100.00;99535.44;4986186;28;20012;-77
2023/06/15 07:00:36;;;;;;;;;;;;;;;20.85;100.00;99543.69;4987810;28;19917;-78
2023/06/15 07:03:02;;;;;;;;;;;;;;;20.94;100.00;99530.06;4988296;28;19925;-78
2023/06/15 07:05:27;;;;;;;;;;;;;;;21.09;100.00;99533.31;4968134;28;19918;-78
2023/06/15 07:07:53;;;;;;;;;;;;;;;21.12;100.00;99532.91;4988828;28;19917;-77
2023/06/15 07:10:18;;;;;;;;;;;;;;;21.10;100.00;99530.41;4987648;28;19918;-76
2023/06/15 07:12:44;;;;;;;;;;;;;;;21.12;100.00;99527.53;4986255;28;19917;-77
2023/06/15 07:15:09;;;;;;;;;;;;;;;21.09;100.00;99522.56;4983781;28;20016;-77
2023/06/15 07:17:35;;;;;;;;;;;;;;;21.05;100.00;99518.66;4987416;28;19918;-77
2023/06/15 07:20:00;;;;;;;;;;;;;;;21.03;100.00;99528.81;4986379;28;19917;-76
2023/06/15 07:22:26;;;;;;;;;;;;;;;20.93;100.00;99523.03;4985408;28;19917;-75
2023/06/15 07:24:51;;;;;;;;;;;;;;;20.88;100.00;99526.34;4988611;28;19918;-75
2023/06/15 07:27:18;;;;;;;;;;;;;;;20.95;100.00;99527.16;4988745;28;19925;-75
2023/06/15 07:29:43;;;;;;;;;;;;;;;20.98;100.00;99529.41;4986318;28;20480;-76
2023/06/15 07:32:09;;;;;;;;;;;;;;;21.04;100.00;99530.44;4987975;28;20016;-74
2023/06/15 07:34:34;;;;;;;;;;;;;;;21.17;100.00;99525.06;4987591;28;19921;-75
2023/06/15 07:37:00;;;;;;;;;;;;;;;21.26;100.00;99522.97;4971129;28;19921;-76
2023/06/15 07:39:25;;;;;;;;;;;;;;;21.30;100.00;99524.19;4968751;28;19932;-76
2023/06/15 07:41:51;;;;;;;;;;;;;;;21.35;100.00;99527.06;4988398;28;20052;-76
2023/06/15 07:44:16;;;;;;;;;;;;;;;21.39;100.00;99529.09;4988288;28;19918;-77
2023/06/15 07:46:42;;;;;;;;;;;;;;;21.48;100.00;99530.53;4967966;28;19914;-76
2023/06/15 07:49:07;;;;;;;;;;;;;;;21.56;100.00;99530.25;4988357;28;19997;-77
2023/06/15 07:51:34;;;;;;;;;;;;;;;21.63;100.00;99523.00;4987534;28;19918;-77
2023/06/15 07:53:59;;;;;;;;;;;;;;;21.67;100.00;99519.91;4982476;28;19976;-76
2023/06/15 07:56:25;;;;;;;;;;;;;;;21.70;100.00;99524.81;4988252;28;19953;-78
2023/06/15 07:58:51;;;;;;;;;;;;;;;21.67;100.00;99519.91;4988638;28;19917;-77
2023/06/15 08:01:16;;;;;;;;;;;;;;;21.69;100.00;99517.81;4988467;28;19918;-77
2023/06/15 08:03:42;;;;;;;;;;;;;;;21.75;100.00;99520.44;4972378;28;19918;-75
2023/06/15 08:06:07;;;;;;;;;;;;;;;21.76;100.00;99518.59;4986475;28;19922;-76
2023/06/15 08:08:33;;;;;;;;;;;;;;;21.80;100.00;99525.16;4985739;28;19917;-78
2023/06/15 08:10:58;;;;;;;;;;;;;;;21.88;100.00;99508.81;4984521;28;19969;-78
2023/06/15 08:13:24;;;;;;;;;;;;;;;21.96;100.00;99508.59;4983901;28;19922;-78
2023/06/15 08:15:50;;;;;;;;;;;;;;;22.04;100.00;99511.00;4979960;28;19929;-81
2023/06/15 08:18:16;;;;;;;;;;;;;;;22.10;100.00;99512.81;4970143;28;19928;-77
2023/06/15 08:20:42;;;;;;;;;;;;;;;22.18;100.00;99507.19;4990406;28;20004;-77
2023/06/15 08:23:07;;;;;;;;;;;;;;;22.23;100.00;99510.03;4985085;28;19969;-79
2023/06/15 08:25:34;;;;;;;;;;;;;;;22.32;100.00;99500.66;4983282;28;19918;-79
2023/06/15 08:28:01;;;;;;;;;;;;;;;22.40;100.00;99504.91;4968882;28;19968;-79
2023/06/15 08:30:27;;;;;;;;;;;;;;;22.42;100.00;99509.03;4967461;28;19917;-79
2023/06/15 08:32:53;;;;;;;;;;;;;;;22.40;100.00;99499.53;4963401;28;20580;-78
2023/06/15 08:35:19;;;;;;;;;;;;;;;22.39;100.00;99505.97;4986692;28;19925;-78
2023/06/15 08:37:45;;;;;;;;;;;;;;;22.41;100.00;99509.25;4985868;28;19969;-78
2023/06/15 08:40:11;;;;;;;;;;;;;;;22.45;100.00;99505.91;4987018;28;19961;-78
2023/06/15 08:42:36;;;;;;;;;;;;;;;22.49;100.00;99502.78;4986795;28;19917;-78
2023/06/15 08:45:06;;;;;;;;;;;;;;;22.51;100.00;99500.69;4986110;28;19918;-76
2023/06/15 08:47:35;;;;;;;;;;;;;;;22.56;100.00;99503.56;4983856;28;19926;-81
2023/06/15 08:50:02;;;;;;;;;;;;;;;22.60;100.00;99504.75;4987130;28;19922;-79
2023/06/15 08:52:28;;;;;;;;;;;;;;;22.67;100.00;99505.50;4983072;28;20366;-79
2023/06/15 08:54:53;;;;;;;;;;;;;;;22.75;100.00;99502.56;4987871;28;19925;-78
2023/06/15 08:57:20;;;;;;;;;;;;;;;22.83;100.00;99504.97;4983331;28;20025;-78
2023/06/15 08:59:45;;;;;;;;;;;;;;;22.86;100.00;99497.25;4986573;28;20275;-79
2023/06/15 09:02:20;;;;;;;;;;;;;;;22.87;100.00;99503.47;4983289;28;19925;-79
2023/06/15 09:04:46;;;;;;;;;;;;;;;22.92;100.00;99503.59;4987294;28;19918;-79
2023/06/15 09:07:12;;;;;;;;;;;;;;;22.98;100.00;99500.03;4963705;28;19918;-78
2023/06/15 09:10:11;;;;;;;12.15;10.27;;;;;;;22.99;100.00;99493.59;4985961;28;19964;-79
2023/06/15 09:12:56;;;;;;;11.82;10.73;;;;;;;22.99;100.00;99492.78;4967089;28;20048;-79
2023/06/15 09:15:29;;;;;;;12.63;10.07;;;;;;;23.05;100.00;99487.31;4985162;28;20035;-78
2023/06/15 09:17:57;;;;;;;11.95;10.57;;;;;;;23.13;100.00;99495.09;4987712;28;20045;-78
2023/06/15 09:20:25;;;;;;;12.73;11.25;;;;;;;23.17;100.00;99496.28;4987040;28;20109;-78
2023/06/15 09:22:51;;;;;;;11.15;9.73;;;;;;;23.20;100.00;99497.72;4991147;28;20034;-78
2023/06/15 09:25:20;;;;;;;10.10;8.95;;;;;;;23.25;100.00;99498.69;4987943;28;20030;-77
2023/06/15 09:27:57;;;;;;;12.35;10.63;;;;;;;23.33;100.00;99500.22;4983677;28;20105;-79
2023/06/15 09:30:31;;;;;;;10.50;9.52;;;;;;;23.40;100.00;99489.38;4988452;28;20033;-78
2023/06/15 09:33:10;;;;;;;13.63;9.40;;;;;;;23.46;100.00;99504.63;4986982;28;20423;-78
2023/06/15 09:35:36;;;;;;;9.52;8.52;;;;;;;23.55;100.00;99497.91;4986449;28;20047;-78
2023/06/15 09:38:02;;;;;;;10.10;9.10;;;;;;;23.61;100.00;99497.00;4987929;28;20477;-78
2023/06/15 09:40:33;;;;;;;9.20;8.27;;;;;;;23.65;100.00;99499.00;4989455;28;20041;-78
2023/06/15 09:42:59;;;;;;;8.88;8.07;;;;;;;23.72;100.00;99498.91;4969907;28;20032;-79
2023/06/15 09:45:24;;;;;;;9.80;8.85;;;;;;;23.75;100.00;99493.06;4971726;28;20034;-78
2023/06/15 09:47:55;;;;;;;11.23;8.75;;;;;;;23.76;100.00;99489.31;4967808;28;20038;-79
2023/06/15 09:50:27;;;;;;;10.15;9.05;;;;;;;23.75;100.00;99486.84;4984577;28;20447;-79
2023/06/15 09:52:55;;;;;;;8.68;7.97;;;;;;;23.81;100.00;99486.75;4990547;28;20382;-78
2023/06/15 09:55:23;;;;;;;9.88;8.43;;;;;;;23.89;100.00;99488.31;4986321;28;20110;-78
2023/06/15 09:57:53;;;;;;;10.63;9.63;;;;;;;23.87;100.00;99480.44;4990226;28;20030;-78
2023/06/15 10:00:19;;;;;;;9.68;8.77;;;;;;;23.88;100.00;99482.09;4985708;28;20031;-78
2023/06/15 10:02:46;;;;;;;9.15;8.25;;;;;;;23.92;100.00;99488.66;4988612;28;20044;-79
2023/06/15 10:05:14;;;;;;;10.02;7.18;;;;;;;23.95;100.00;99477.44;4966070;28;20042;-77
2023/06/15 10:07:48;;;;;;;8.23;7.55;;;;;;;23.98;100.00;99474.25;4971363;28;20457;-78
2023/06/15 10:10:16;;;;;;;8.30;7.25;;;;;;;24.02;100.00;99478.16;4985973;28;20038;-78
2023/06/15 10:12:45;;;;;;;7.82;7.13;;;;;;;24.06;100.00;99479.31;4989675;28;20360;-78
2023/06/15 10:15:15;;;;;;;9.02;7.75;;;;;;;24.13;100.00;99475.69;4969706;28;20030;-78
2023/06/15 10:17:46;;;;;;;10.75;8.55;;;;;;;24.17;100.00;99479.56;4987999;28;19961;-78
2023/06/15 10:20:17;;;;;;;9.20;7.68;;;;;;;24.22;100.00;99480.53;4988488;28;20034;-78
2023/06/15 10:23:00;;;;;;;10.23;9.23;;;;;;;24.17;100.00;99479.56;4988333;28;20129;-78
2023/06/15 10:25:30;;;;;;;10.00;9.10;;;;;;;24.19;100.00;99482.88;4988134;28;20109;-78
2023/06/15 10:27:56;;;;;;;9.90;9.02;;;;;;;24.25;100.00;99484.66;4986234;28;20085;-78
2023/06/15 10:30:49;;;;;;;9.77;8.77;;;;;;;24.27;100.00;99479.84;4985115;28;20039;-79
2023/06/15 10:33:32;;;;;;;8.77;7.97;;;;;;;24.35;100.00;99477.63;4988386;28;20134;-78
2023/06/15 10:36:03;;;;;;;9.30;8.35;;;;;;;24.37;100.00;99472.81;4986103;28;20223;-78
2023/06/15 10:38:41;;;;;;;8.25;7.35;;;;;;;24.42;100.00;99467.53;4988769;28;20494;-79
2023/06/15 10:41:08;;;;;;;9.55;7.55;;;;;;;24.48;100.00;99471.19;4984387;28;20426;-80
2023/06/15 10:43:33;;;;;;;9.00;7.45;;;;;;;24.48;100.00;99465.78;4969111;28;20039;-80
2023/06/15 10:46:02;;;;;;;7.82;7.03;;;;;;;24.49;100.00;99464.72;4987615;28;20125;-81
2023/06/15 10:48:28;;;;;;;6.75;6.18;;;;;;;24.51;100.00;99470.69;4983850;28;20062;-79
2023/06/15 10:51:03;;;;;;;7.22;5.97;;;;;;;24.53;100.00;99471.28;4988213;28;20069;-78
2023/06/15 10:53:34;;;;;;;6.63;4.93;;;;;;;24.58;100.00;99471.41;4969082;28;20043;-77
2023/06/15 10:56:00;;;;;;;5.40;4.80;;;;;;;24.61;100.00;99468.25;4986884;28;20402;-79
2023/06/15 10:58:27;;;;;;;5.43;4.75;;;;;;;24.64;100.00;99465.06;4969702;28;20034;-80
2023/06/15 11:01:13;;;;;;;5.70;5.22;;;;;;;24.69;100.00;99473.28;4986495;28;20030;-76
2023/06/15 11:03:43;;;;;;;5.97;5.47;;;;;;;24.73;100.00;99474.47;4985745;28;20152;-78
2023/06/15 11:06:33;;;;;;;6.85;5.53;;;;;;;24.77;100.00;99470.22;4985432;28;20034;-75
2023/06/15 11:09:08;;;;;;;;;;;;;;;24.79;100.00;99468.13;4983780;28;20034;-78
2023/06/15 11:11:39;;;;;;;7.88;6.45;;;;;;;24.84;100.00;99464.69;4986908;28;20374;-78
2023/06/15 11:14:04;;;;;;;;;;;;;;;24.86;100.00;99463.38;4987964;28;20117;-79
2023/06/15 11:16:35;;;;;;;6.95;6.25;;;;;;;24.86;100.00;99458.00;4989097;28;20096;-79
2023/06/15 11:19:10;;;;;;;6.78;6.18;;;;;;;24.90;100.00;99462.97;4987279;28;20368;-79
2023/06/15 11:21:40;;;;;;;6.90;5.70;;;;;;;24.91;100.00;99459.22;4984170;28;20391;-79
2023/06/15 11:24:06;;;;;;;6.03;5.45;;;;;;;24.96;100.00;99467.41;4988646;28;20530;-79
2023/06/15 11:26:34;;;;;;;6.30;5.80;;;;;;;25.00;100.00;99460.47;4990713;28;20038;-79
2023/06/15 11:29:03;;;;;;;6.40;5.80;;;;;;;25.02;100.00;99455.66;4993413;28;20030;-79
2023/06/15 11:31:31;;;;;;;5.50;4.77;;;;;;;25.05;100.00;99452.47;4989942;28;20118;-79
2023/06/15 11:33:57;;;;;;;4.63;4.28;;;;;;;25.17;100.00;99453.25;4989196;28;20305;-78
2023/06/15 11:36:23;;;;;;;5.05;4.57;;;;;;;25.26;100.00;99451.81;4991009;28;20046;-79
2023/06/15 11:38:49;;;;;;;6.07;4.88;;;;;;;25.32;100.00;99448.16;4992253;28;20037;-78
2023/06/15 11:41:15;;;;;;;5.10;4.60;;;;;;;25.38;100.00;99449.91;4992062;28;20046;-79
2023/06/15 11:43:45;;;;;;;4.22;3.83;;;;;;;25.39;97.37;99454.22;4990056;28;20046;-79
2023/06/15 11:46:13;;;;;;;5.50;4.03;;;;;;;25.38;96.26;99449.91;4987043;28;20031;-79
2023/06/15 11:48:39;;;;;;;4.28;3.97;;;;;;;25.41;97.35;99454.81;4989764;28;20490;-79
2023/06/15 11:51:09;;;;;;;6.88;4.25;;;;;;;25.49;98.08;99446.31;4972648;28;20046;-79
2023/06/15 11:53:37;;;;;;;4.30;4.00;;;;;;;25.61;96.71;99439.03;4988092;28;20468;-80
2023/06/15 11:56:03;;;;;;;4.00;3.70;;;;;;;25.71;96.65;99432.13;4989159;28;20039;-78
2023/06/15 11:58:29;;;;;;;;;;;;;;;25.78;94.75;99439.03;4991992;28;20030;-78
2023/06/15 12:00:55;;;;;;;;;;;;;;;25.84;92.81;99438.06;4990349;28;19929;-80
2023/06/15 12:03:21;;;;;;;;;;;;;;;25.91;91.98;99433.31;4988321;28;20018;-78
2023/06/15 12:05:55;;;;;;;;;;;;;;;26.00;89.65;99431.00;4991759;28;20412;-79
2023/06/15 12:08:20;;;;;;;;;;;;;;;26.01;87.24;99435.34;4992528;28;20028;-80
2023/06/15 12:10:46;;;;;;;;;;;;;;;26.05;87.72;99425.69;4991897;28;19924;-80
2023/06/15 12:13:12;;;;;;;;;;;;;;;26.13;89.09;99424.47;4988620;28;19978;-80
2023/06/15 12:15:39;;;;;;;;;;;;;;;26.17;89.84;99412.06;4991627;28;19977;-80
2023/06/15 12:18:07;;;;;;;;;;;;;;;26.24;89.25;99410.06;4987361;28;19917;-79
2023/06/15 12:20:35;;;;;;;;;;;;;;;26.41;86.98;99411.66;4990179;28;19971;-79
2023/06/15 12:23:00;;;;;;;;;;;;;;;26.52;84.70;99400.97;4987564;28;20342;-79